Time;durP1;ratioP1;P1;durP2;ratioP2;P2;SDS_P1;SDS_P2;PMS_P1;PMS_P2;Temp;Humidity;BMP_temperature;BMP_pressure;BME280_temperature;BME280_humidity;BME280_pressure;Samples;Min_cycle;Max_cycle;Signal;HPM_P1;HPM_P2
2023/05/27 00:02:02;;;;;;;34.17;5.85;;;;;;;;;;4953623;28;93715;-87
2023/05/27 00:04:29;;;;;;;20.90;4.70;;;;;;;;;;4953977;28;92271;-88
2023/05/27 00:06:55;;;;;;;19.08;4.15;;;;;;;;;;4952170;28;95823;-87
2023/05/27 00:09:22;;;;;;;19.15;4.97;;;;;;;;;;4950765;28;94026;-87
2023/05/27 00:11:49;;;;;;;19.23;4.75;;;;;;;;;;4961635;28;92449;-87
2023/05/27 00:14:17;;;;;;;15.43;3.30;;;;;;;;;;4958895;28;93586;-87
2023/05/27 00:16:44;;;;;;;19.02;3.95;;;;;;;;;;4972676;28;94016;-87
2023/05/27 00:19:11;;;;;;;13.93;3.85;;;;;;;;;;4977561;28;92323;-87
2023/05/27 00:21:38;;;;;;;22.88;4.80;;;;;;;;;;4960180;28;94419;-88
2023/05/27 00:24:04;;;;;;;24.15;3.95;;;;;;;;;;4963968;28;91222;-87
2023/05/27 00:26:31;;;;;;;15.55;4.22;;;;;;;;;;4955012;28;93739;-88
2023/05/27 00:28:59;;;;;;;15.95;3.92;;;;;;;;;;4953133;28;95756;-88
2023/05/27 00:31:25;;;;;;;11.98;4.00;;;;;;;;;;4942244;28;94803;-88
2023/05/27 00:33:52;;;;;;;17.55;4.03;;;;;;;;;;4950487;28;92109;-88
2023/05/27 00:36:19;;;;;;;24.20;7.00;;;;;;;;;;4952700;28;94620;-88
2023/05/27 00:38:46;;;;;;;22.30;4.95;;;;;;;;;;4942727;28;94407;-87
2023/05/27 00:41:12;;;;;;;18.90;4.00;;;;;;;;;;4950547;28;92377;-88
2023/05/27 00:43:39;;;;;;;24.70;5.00;;;;;;;;;;4952818;28;93040;-88
2023/05/27 00:46:06;;;;;;;20.77;3.50;;;;;;;;;;4930217;28;95162;-88
2023/05/27 00:48:34;;;;;;;13.40;3.40;;;;;;;;;;4949412;28;94357;-88
2023/05/27 00:51:01;;;;;;;25.63;4.53;;;;;;;;;;4950042;28;92442;-88
2023/05/27 00:53:27;;;;;;;22.13;5.03;;;;;;;;;;4955901;28;92487;-88
2023/05/27 00:55:56;;;;;;;16.27;3.88;;;;;;;;;;4953390;28;95831;-88
2023/05/27 00:58:23;;;;;;;16.25;4.75;;;;;;;;;;4935947;28;94774;-87
2023/05/27 01:00:50;;;;;;;21.30;4.50;;;;;;;;;;4949378;28;93971;-87
2023/05/27 01:03:17;;;;;;;20.55;4.72;;;;;;;;;;4953084;28;94812;-87
2023/05/27 01:05:44;;;;;;;20.52;4.30;;;;;;;;;;4949584;28;93483;-87
2023/05/27 01:08:26;;;;;;;12.48;3.42;;;;;;;;;;4950131;28;93958;-87
2023/05/27 01:10:54;;;;;;;18.83;3.97;;;;;;;;;;4944880;28;95900;-88
2023/05/27 01:13:31;;;;;;;10.88;3.53;;;;;;;;;;4942172;28;94468;-87
2023/05/27 01:15:59;;;;;;;10.35;3.70;;;;;;;;;;4956430;28;93879;-87
2023/05/27 01:18:29;;;;;;;20.20;4.82;;;;;;;;;;4938325;28;94649;-88
2023/05/27 01:21:02;;;;;;;16.23;3.63;;;;;;;;;;4951917;28;94982;-87
2023/05/27 01:23:30;;;;;;;12.80;3.55;;;;;;;;;;4955137;28;92877;-87
2023/05/27 01:25:58;;;;;;;21.40;4.40;;;;;;;;;;4950050;28;95308;-87
2023/05/27 01:28:25;;;;;;;10.20;3.60;;;;;;;;;;4944976;28;96761;-87
2023/05/27 01:30:52;;;;;;;11.27;3.63;;;;;;;;;;4953119;28;92251;-88
2023/05/27 01:33:24;;;;;;;10.90;3.80;;;;;;;;;;4954791;28;92015;-87
2023/05/27 01:35:52;;;;;;;19.92;3.80;;;;;;;;;;4952485;28;94128;-87
2023/05/27 01:38:21;;;;;;;18.88;3.58;;;;;;;;;;4940570;28;93475;-87
2023/05/27 01:40:48;;;;;;;17.05;4.20;;;;;;;;;;4940134;28;92097;-87
2023/05/27 01:43:15;;;;;;;20.67;4.05;;;;;;;;;;4952979;28;96037;-87
2023/05/27 01:45:46;;;;;;;17.33;4.00;;;;;;;;;;4940390;28;94960;-87
2023/05/27 01:48:12;;;;;;;19.88;4.50;;;;;;;;;;4956840;28;93913;-87
2023/05/27 01:50:39;;;;;;;15.68;3.78;;;;;;;;;;4964742;28;93776;-87
2023/05/27 01:53:06;;;;;;;13.85;3.63;;;;;;;;;;4963985;28;92459;-88
2023/05/27 01:55:33;;;;;;;20.85;4.65;;;;;;;;;;4959132;28;94116;-86
2023/05/27 01:58:01;;;;;;;19.65;4.45;;;;;;;;;;4939291;28;94020;-87
2023/05/27 02:00:30;;;;;;;14.85;3.75;;;;;;;;;;4958361;28;94407;-87
2023/05/27 02:02:57;;;;;;;21.40;4.38;;;;;;;;;;4955471;28;95278;-87
2023/05/27 02:05:24;;;;;;;23.88;5.70;;;;;;;;;;4939487;28;94684;-87
2023/05/27 02:07:51;;;;;;;18.17;3.70;;;;;;;;;;4949947;28;94918;-87
2023/05/27 02:10:17;;;;;;;21.20;4.43;;;;;;;;;;4953374;28;98884;-87
2023/05/27 02:12:47;;;;;;;12.13;4.05;;;;;;;;;;4936063;28;94493;-88
2023/05/27 02:15:14;;;;;;;16.63;4.30;;;;;;;;;;4956093;28;94166;-87
2023/05/27 02:17:44;;;;;;;11.57;3.60;;;;;;;;;;4967720;28;95209;-87
2023/05/27 02:20:11;;;;;;;11.73;4.20;;;;;;;;;;4973093;28;94481;-87
2023/05/27 02:22:38;;;;;;;17.63;4.10;;;;;;;;;;4982991;28;91770;-87
2023/05/27 02:25:06;;;;;;;12.00;3.80;;;;;;;;;;4960703;28;94786;-87
2023/05/27 02:27:33;;;;;;;12.70;3.42;;;;;;;;;;4979564;28;94618;-88
2023/05/27 02:30:00;;;;;;;25.48;5.57;;;;;;;;;;4964081;28;94808;-87
2023/05/27 02:32:27;;;;;;;19.65;4.38;;;;;;;;;;4976551;28;94897;-87
2023/05/27 02:34:54;;;;;;;22.55;4.80;;;;;;;;;;4952496;28;94754;-87
2023/05/27 02:37:20;;;;;;;24.13;5.68;;;;;;;;;;4966040;28;94496;-87
2023/05/27 02:39:47;;;;;;;21.13;3.80;;;;;;;;;;4974324;28;93844;-87
2023/05/27 02:42:14;;;;;;;17.30;3.97;;;;;;;;;;4967806;28;94233;-87
2023/05/27 02:44:40;;;;;;;13.07;4.43;;;;;;;;;;4951496;28;94061;-87
2023/05/27 02:47:07;;;;;;;12.82;3.78;;;;;;;;;;4956570;28;92897;-88
2023/05/27 02:49:33;;;;;;;14.00;4.50;;;;;;;;;;4955348;28;94730;-88
2023/05/27 02:52:00;;;;;;;16.35;4.97;;;;;;;;;;4954732;28;92163;-88
2023/05/27 02:54:27;;;;;;;18.17;3.90;;;;;;;;;;4948782;28;92778;-88
2023/05/27 02:56:53;;;;;;;14.52;4.18;;;;;;;;;;4933075;28;94371;-88
2023/05/27 02:59:20;;;;;;;23.17;5.65;;;;;;;;;;4953258;28;95010;-88
2023/05/27 03:01:47;;;;;;;17.02;4.30;;;;;;;;;;4926488;28;98031;-88
2023/05/27 03:04:16;;;;;;;15.75;4.93;;;;;;;;;;4940735;28;94874;-88
2023/05/27 03:06:43;;;;;;;21.70;4.57;;;;;;;;;;4938285;28;94270;-87
2023/05/27 03:09:09;;;;;;;11.02;3.65;;;;;;;;;;4954283;28;95194;-88
2023/05/27 03:11:36;;;;;;;12.85;3.05;;;;;;;;;;4956385;28;94472;-88
2023/05/27 03:14:06;;;;;;;23.77;4.88;;;;;;;;;;4963223;28;94330;-88
2023/05/27 03:16:34;;;;;;;20.00;3.70;;;;;;;;;;4947029;28;94399;-88
2023/05/27 03:19:03;;;;;;;22.85;4.45;;;;;;;;;;4958277;28;94608;-88
2023/05/27 03:21:31;;;;;;;19.90;5.32;;;;;;;;;;4938113;28;93964;-88
2023/05/27 03:23:58;;;;;;;13.50;4.07;;;;;;;;;;4933187;28;98000;-88
2023/05/27 03:26:25;;;;;;;10.05;3.60;;;;;;;;;;4957243;28;92771;-88
2023/05/27 03:28:53;;;;;;;14.55;5.43;;;;;;;;;;4943964;28;92464;-88
2023/05/27 03:31:19;;;;;;;14.02;4.20;;;;;;;;;;4951375;28;94490;-88
2023/05/27 03:34:00;;;;;;;15.75;4.20;;;;;;;;;;4953302;28;93020;-88
2023/05/27 03:36:27;;;;;;;29.23;5.28;;;;;;;;;;4950472;28;95823;-87
2023/05/27 03:38:56;;;;;;;15.77;4.53;;;;;;;;;;4945652;28;94698;-87
2023/05/27 03:41:25;;;;;;;29.25;5.72;;;;;;;;;;4968553;28;92999;-88
2023/05/27 03:43:51;;;;;;;19.42;4.70;;;;;;;;;;4962377;28;94611;-87
2023/05/27 03:46:18;;;;;;;18.27;4.47;;;;;;;;;;4970055;28;94443;-87
2023/05/27 03:48:46;;;;;;;21.85;4.38;;;;;;;;;;4975847;28;94748;-88
2023/05/27 03:51:12;;;;;;;26.35;5.55;;;;;;;;;;4967226;28;95166;-87
2023/05/27 03:53:39;;;;;;;16.73;4.88;;;;;;;;;;4955713;28;93268;-88
2023/05/27 03:56:06;;;;;;;11.90;4.07;;;;;;;;;;4946164;28;92596;-88
2023/05/27 03:58:33;;;;;;;13.82;3.75;;;;;;;;;;4954625;28;94329;-88
2023/05/27 04:01:00;;;;;;;19.67;4.32;;;;;;;;;;4956842;28;94613;-88
2023/05/27 04:03:27;;;;;;;16.17;4.07;;;;;;;;;;4938004;28;94111;-87
2023/05/27 04:05:56;;;;;;;17.42;5.05;;;;;;;;;;4963979;28;92256;-88
2023/05/27 04:08:25;;;;;;;13.63;4.82;;;;;;;;;;4976617;28;93474;-87
2023/05/27 04:10:53;;;;;;;18.88;4.38;;;;;;;;;;4956386;28;94391;-87
2023/05/27 04:13:20;;;;;;;19.55;4.63;;;;;;;;;;4939506;28;94943;-87
2023/05/27 04:15:47;;;;;;;13.88;4.28;;;;;;;;;;4973266;28;92417;-88
2023/05/27 04:18:14;;;;;;;23.60;4.97;;;;;;;;;;4955140;28;94761;-87
2023/05/27 04:20:46;;;;;;;16.20;4.50;;;;;;;;;;4937273;28;94231;-88
2023/05/27 04:23:13;;;;;;;20.02;6.45;;;;;;;;;;4951675;28;94039;-87
2023/05/27 04:25:40;;;;;;;9.20;3.60;;;;;;;;;;4944258;28;94385;-88
2023/05/27 04:28:09;;;;;;;18.55;4.38;;;;;;;;;;4955721;28;94760;-88
2023/05/27 04:30:40;;;;;;;14.88;3.72;;;;;;;;;;4954586;28;92347;-88
2023/05/27 04:33:17;;;;;;;17.15;3.72;;;;;;;;;;4941114;28;94179;-88
2023/05/27 04:35:47;;;;;;;14.77;3.92;;;;;;;;;;4958773;28;94361;-87
2023/05/27 04:38:15;;;;;;;20.23;4.07;;;;;;;;;;4951596;28;95357;-88
2023/05/27 04:40:54;;;;;;;17.60;4.63;;;;;;;;;;4952309;28;97421;-88
2023/05/27 04:43:48;;;;;;;15.07;4.72;;;;;;;;;;4952741;28;93365;-88
2023/05/27 04:46:17;;;;;;;16.60;5.00;;;;;;;;;;4956174;28;94440;-88
2023/05/27 04:48:46;;;;;;;10.88;4.10;;;;;;;;;;4972553;28;94821;-87
2023/05/27 04:51:15;;;;;;;30.23;7.10;;;;;;;;;;4937994;28;95247;-87
2023/05/27 04:53:42;;;;;;;16.38;4.82;;;;;;;;;;4945155;28;94906;-88
2023/05/27 04:56:10;;;;;;;14.05;4.78;;;;;;;;;;4945610;28;92055;-87
2023/05/27 04:58:39;;;;;;;22.95;4.85;;;;;;;;;;4952291;28;95068;-88
2023/05/27 05:01:06;;;;;;;18.77;4.38;;;;;;;;;;4951899;28;92581;-87
2023/05/27 05:03:50;;;;;;;16.77;5.57;;;;;;;;;;4929919;28;97240;-87
2023/05/27 05:06:22;;;;;;;29.10;5.50;;;;;;;;;;4951588;28;94270;-87
2023/05/27 05:08:49;;;;;;;;;;;;;;;;;;4925636;28;93496;-87
2023/05/27 05:11:19;;;;;;;15.68;4.50;;;;;;;;;;4934312;28;94448;-87
2023/05/27 05:13:46;;;;;;;18.38;5.20;;;;;;;;;;4955318;28;94148;-88
2023/05/27 05:16:13;;;;;;;24.98;5.18;;;;;;;;;;4960379;28;94828;-87
2023/05/27 05:18:41;;;;;;;30.08;6.28;;;;;;;;;;4953527;28;95404;-88
2023/05/27 05:21:08;;;;;;;24.58;4.57;;;;;;;;;;4940878;28;92034;-88
2023/05/27 05:23:40;;;;;;;21.40;6.50;;;;;;;;;;4949967;28;95864;-89
2023/05/27 05:26:06;;;;;;;23.83;5.10;;;;;;;;;;4947202;28;95741;-88
2023/05/27 05:28:37;;;;;;;17.77;5.20;;;;;;;;;;4955843;28;95198;-88
2023/05/27 05:31:06;;;;;;;24.23;5.30;;;;;;;;;;4948331;28;95745;-88
2023/05/27 05:33:33;;;;;;;16.88;5.15;;;;;;;;;;4963302;28;94382;-87
2023/05/27 05:35:59;;;;;;;17.10;4.60;;;;;;;;;;4945891;28;94765;-88
2023/05/27 05:38:34;;;;;;;17.95;4.78;;;;;;;;;;4960087;28;92433;-87
2023/05/27 05:41:01;;;;;;;36.45;6.57;;;;;;;;;;4958171;28;95282;-85
2023/05/27 05:43:30;;;;;;;26.38;5.05;;;;;;;;;;4952874;28;93845;-86
2023/05/27 05:45:57;;;;;;;27.30;6.47;;;;;;;;;;4954031;28;94788;-86
2023/05/27 05:48:23;;;;;;;22.25;5.60;;;;;;;;;;4937923;28;93445;-86
2023/05/27 05:50:50;;;;;;;29.83;5.45;;;;;;;;;;4939833;28;94436;-86
2023/05/27 05:53:18;;;;;;;26.85;5.45;;;;;;;;;;4946623;28;94935;-86
2023/05/27 05:55:45;;;;;;;17.02;4.85;;;;;;;;;;4944762;28;97011;-86
2023/05/27 05:58:13;;;;;;;26.20;5.78;;;;;;;;;;4950214;28;93171;-86
2023/05/27 06:00:40;;;;;;;20.27;4.80;;;;;;;;;;4952271;28;94147;-85
2023/05/27 06:03:27;;;;;;;19.08;4.82;;;;;;;;;;4950534;28;94490;-85
2023/05/27 06:05:57;;;;;;;27.73;4.82;;;;;;;;;;4954997;28;94798;-86
2023/05/27 06:08:24;;;;;;;19.10;4.45;;;;;;;;;;4948748;28;94869;-86
2023/05/27 06:11:12;;;;;;;24.42;5.45;;;;;;;;;;4955837;28;95424;-86
2023/05/27 06:13:41;;;;;;;25.40;4.82;;;;;;;;;;4936714;28;95353;-85
2023/05/27 06:16:11;;;;;;;29.27;6.55;;;;;;;;;;4948750;28;95143;-86
2023/05/27 06:18:38;;;;;;;22.15;5.45;;;;;;;;;;4929392;28;96773;-86
2023/05/27 06:21:05;;;;;;;34.70;5.50;;;;;;;;;;4949500;28;94648;-86
2023/05/27 06:23:51;;;;;;;23.25;6.00;;;;;;;;;;4959387;28;93586;-86
2023/05/27 06:26:21;;;;;;;22.90;5.07;;;;;;;;;;4957308;28;96180;-86
2023/05/27 06:28:50;;;;;;;22.35;4.63;;;;;;;;;;4947445;28;95475;-85
2023/05/27 06:31:16;;;;;;;25.88;4.80;;;;;;;;;;4954254;28;94668;-85
2023/05/27 06:33:43;;;;;;;25.63;6.07;;;;;;;;;;4951968;28;94347;-86
2023/05/27 06:36:10;;;;;;;21.10;4.80;;;;;;;;;;4937350;28;95272;-86
2023/05/27 06:38:39;;;;;;;15.98;5.15;;;;;;;;;;4949004;28;94098;-85
2023/05/27 06:41:07;;;;;;;22.05;5.70;;;;;;;;;;4953047;28;94068;-85
2023/05/27 06:43:39;;;;;;;20.25;5.60;;;;;;;;;;4956752;28;94711;-85
2023/05/27 06:46:28;;;;;;;26.13;5.80;;;;;;;;;;4950704;28;92954;-85
2023/05/27 06:49:04;;;;;;;23.50;5.35;;;;;;;;;;4949695;28;92860;-86
2023/05/27 06:51:32;;;;;;;18.30;4.72;;;;;;;;;;4943955;28;94307;-85
2023/05/27 06:53:58;;;;;;;27.38;4.82;;;;;;;;;;4935360;28;94587;-84
2023/05/27 06:56:33;;;;;;;21.23;4.50;;;;;;;;;;4949288;28;94829;-85
2023/05/27 06:59:37;;;;;;;26.85;5.47;;;;;;;;;;4943595;28;92838;-85
2023/05/27 07:02:03;;;;;;;29.58;5.03;;;;;;;;;;4969506;28;93800;-86
2023/05/27 07:04:30;;;;;;;20.58;4.97;;;;;;;;;;4969776;28;93200;-85
2023/05/27 07:07:00;;;;;;;21.50;5.70;;;;;;;;;;4943341;28;94348;-85
2023/05/27 07:09:27;;;;;;;20.75;5.25;;;;;;;;;;4953022;28;94897;-84
2023/05/27 07:11:54;;;;;;;25.65;6.28;;;;;;;;;;4963710;28;94393;-85
2023/05/27 07:14:39;;;;;;;23.00;6.00;;;;;;;;;;4951244;28;92646;-85
2023/05/27 07:17:07;;;;;;;25.70;7.03;;;;;;;;;;4933759;28;94127;-85
2023/05/27 07:19:34;;;;;;;32.60;5.53;;;;;;;;;;4928095;28;92386;-84
2023/05/27 07:22:05;;;;;;;23.20;5.38;;;;;;;;;;4948504;28;94286;-86
2023/05/27 07:24:32;;;;;;;30.10;6.00;;;;;;;;;;4949975;28;94757;-86
2023/05/27 07:26:59;;;;;;;19.08;5.40;;;;;;;;;;4949734;28;95682;-86
2023/05/27 07:29:29;;;;;;;13.48;4.28;;;;;;;;;;4970105;28;94840;-84
2023/05/27 07:32:10;;;;;;;25.60;5.47;;;;;;;;;;4950327;28;92921;-84
2023/05/27 07:34:37;;;;;;;21.33;5.25;;;;;;;;;;4921877;28;95003;-85
2023/05/27 07:37:04;;;;;;;23.27;4.97;;;;;;;;;;4940096;28;97474;-84
2023/05/27 07:39:31;;;;;;;25.65;5.78;;;;;;;;;;4958057;28;95386;-84
2023/05/27 07:41:57;;;;;;;24.85;5.72;;;;;;;;;;4952396;28;94420;-84
2023/05/27 07:44:27;;;;;;;20.25;4.97;;;;;;;;;;4958104;28;96394;-85
2023/05/27 07:46:54;;;;;;;27.63;6.60;;;;;;;;;;4960202;28;95890;-84
2023/05/27 07:49:21;;;;;;;25.30;6.03;;;;;;;;;;4970677;28;94732;-84
2023/05/27 07:52:01;;;;;;;20.75;5.43;;;;;;;;;;4967474;28;92316;-85
2023/05/27 07:54:28;;;;;;;23.73;4.97;;;;;;;;;;4960107;28;94360;-83
2023/05/27 07:56:57;;;;;;;27.33;5.45;;;;;;;;;;4947067;28;92572;-84
2023/05/27 07:59:24;;;;;;;22.80;5.57;;;;;;;;;;4948914;28;97017;-84
2023/05/27 08:01:51;;;;;;;23.10;5.20;;;;;;;;;;4951077;28;92515;-83
2023/05/27 08:04:18;;;;;;;17.00;3.85;;;;;;;;;;4938822;28;93920;-82
2023/05/27 08:07:01;;;;;;;18.20;4.70;;;;;;;;;;4950078;28;94839;-83
2023/05/27 08:09:48;;;;;;;35.35;5.35;;;;;;;;;;4954881;28;93172;-84
2023/05/27 08:12:43;;;;;;;20.08;4.50;;;;;;;;;;4951590;28;92897;-84
2023/05/27 08:15:14;;;;;;;22.67;5.53;;;;;;;;;;4944368;28;95433;-84
2023/05/27 08:17:57;;;;;;;20.17;5.35;;;;;;;;;;4949338;28;92170;-84
2023/05/27 08:20:37;;;;;;;23.58;4.78;;;;;;;;;;4956597;28;93620;-84
2023/05/27 08:23:11;;;;;;;28.10;5.40;;;;;;;;;;4947267;28;95141;-83
2023/05/27 08:25:52;;;;;;;19.77;5.18;;;;;;;;;;4930954;28;95718;-84
2023/05/27 08:28:36;;;;;;;24.25;5.90;;;;;;;;;;4957057;28;94610;-84
2023/05/27 08:31:17;;;;;;;24.80;5.22;;;;;;;;;;4928923;28;94607;-84
2023/05/27 08:33:52;;;;;;;24.15;5.05;;;;;;;;;;4954949;28;92315;-84
2023/05/27 08:36:19;;;;;;;24.20;5.85;;;;;;;;;;4951977;28;95327;-84
2023/05/27 08:38:47;;;;;;;26.23;5.00;;;;;;;;;;4945465;28;94145;-83
2023/05/27 08:41:21;;;;;;;29.65;5.78;;;;;;;;;;4925927;28;94714;-84
2023/05/27 08:43:49;;;;;;;14.93;4.93;;;;;;;;;;4945296;28;95659;-84
2023/05/27 08:46:17;;;;;;;25.55;5.72;;;;;;;;;;4955677;28;92413;-84
2023/05/27 08:48:45;;;;;;;22.92;5.18;;;;;;;;;;4955087;28;93868;-84
2023/05/27 08:51:13;;;;;;;25.08;6.32;;;;;;;;;;4956751;28;94731;-83
2023/05/27 08:53:39;;;;;;;17.75;4.60;;;;;;;;;;4961280;28;96585;-84
2023/05/27 08:56:08;;;;;;;28.42;6.32;;;;;;;;;;4945512;28;92252;-84
2023/05/27 08:58:39;;;;;;;14.90;5.20;;;;;;;;;;4958914;28;94714;-84
2023/05/27 09:01:06;;;;;;;21.25;4.32;;;;;;;;;;4962381;28;92381;-84
2023/05/27 09:03:35;;;;;;;20.98;5.15;;;;;;;;;;4960177;28;93862;-85
2023/05/27 09:06:04;;;;;;;32.75;6.22;;;;;;;;;;4961600;28;94466;-84
2023/05/27 09:08:31;;;;;;;21.10;5.28;;;;;;;;;;4959497;28;94484;-85
2023/05/27 09:11:21;;;;;;;26.67;5.60;;;;;;;;;;4946755;28;93079;-86
2023/05/27 09:13:48;;;;;;;24.77;5.78;;;;;;;;;;4958863;28;94475;-86
2023/05/27 09:16:19;;;;;;;28.23;5.07;;;;;;;;;;4959019;28;98015;-83
2023/05/27 09:18:46;;;;;;;23.02;5.55;;;;;;;;;;4951867;28;92669;-84
2023/05/27 09:21:12;;;;;;;22.25;4.82;;;;;;;;;;4967505;28;93819;-85
2023/05/27 09:23:39;;;;;;;26.98;6.28;;;;;;;;;;4951063;28;92381;-84
2023/05/27 09:26:07;;;;;;;27.08;5.78;;;;;;;;;;4945801;28;92904;-84
2023/05/27 09:28:35;;;;;;;17.50;4.93;;;;;;;;;;4949255;28;94884;-84
2023/05/27 09:31:04;;;;;;;23.98;5.45;;;;;;;;;;4961055;28;92302;-84
2023/05/27 09:33:32;;;;;;;35.08;6.63;;;;;;;;;;4956225;28;92792;-85
2023/05/27 09:35:59;;;;;;;25.77;6.38;;;;;;;;;;4940860;28;94387;-87
2023/05/27 09:38:30;;;;;;;20.20;5.18;;;;;;;;;;4949512;28;92421;-87
2023/05/27 09:40:57;;;;;;;23.48;5.63;;;;;;;;;;4947009;28;94867;-85
2023/05/27 09:43:24;;;;;;;22.83;5.88;;;;;;;;;;4952576;28;93039;-86
2023/05/27 09:45:52;;;;;;;26.33;6.70;;;;;;;;;;4951126;28;92563;-87
2023/05/27 09:48:21;;;;;;;31.75;6.68;;;;;;;;;;4953881;28;93295;-86
2023/05/27 09:50:49;;;;;;;30.23;6.15;;;;;;;;;;4944883;28;94787;-86
2023/05/27 09:53:17;;;;;;;19.52;5.40;;;;;;;;;;4957802;28;94195;-85
2023/05/27 09:55:44;;;;;;;25.08;5.22;;;;;;;;;;4946712;28;94332;-86
2023/05/27 09:58:12;;;;;;;20.90;5.38;;;;;;;;;;4955771;28;92864;-86
2023/05/27 10:00:40;;;;;;;30.02;5.85;;;;;;;;;;4954943;28;92399;-86
2023/05/27 10:03:07;;;;;;;25.55;6.15;;;;;;;;;;4955581;28;93177;-85
2023/05/27 10:05:34;;;;;;;25.13;5.82;;;;;;;;;;4942489;28;94783;-86
2023/05/27 10:08:01;;;;;;;25.35;5.10;;;;;;;;;;4955590;28;96228;-85
2023/05/27 10:10:32;;;;;;;18.70;5.28;;;;;;;;;;4954611;28;95262;-86
2023/05/27 10:12:58;;;;;;;18.05;5.65;;;;;;;;;;4954590;28;93090;-87
2023/05/27 10:15:29;;;;;;;17.90;5.00;;;;;;;;;;4942272;28;92495;-85
2023/05/27 10:18:05;;;;;;;20.15;5.18;;;;;;;;;;4957278;28;92800;-85
2023/05/27 10:20:34;;;;;;;18.92;5.85;;;;;;;;;;4934642;28;95394;-85
2023/05/27 10:23:11;;;;;;;17.05;5.22;;;;;;;;;;4947443;28;93379;-85
2023/05/27 10:25:39;;;;;;;19.38;5.47;;;;;;;;;;4952089;28;93436;-85
2023/05/27 10:28:06;;;;;;;23.58;6.28;;;;;;;;;;4957532;28;92410;-85
2023/05/27 10:30:42;;;;;;;19.65;6.43;;;;;;;;;;4931157;28;94911;-86
2023/05/27 10:33:09;;;;;;;23.98;6.40;;;;;;;;;;4946862;28;95229;-85
2023/05/27 10:35:39;;;;;;;18.90;5.30;;;;;;;;;;4953239;28;94563;-86
2023/05/27 10:38:16;;;;;;;20.73;4.93;;;;;;;;;;4956023;28;92756;-86
2023/05/27 10:40:46;;;;;;;16.20;4.97;;;;;;;;;;4949857;28;94620;-85
2023/05/27 10:43:17;;;;;;;18.73;5.88;;;;;;;;;;4931141;28;94761;-86
2023/05/27 10:45:44;;;;;;;18.58;4.68;;;;;;;;;;4942944;28;92856;-87
2023/05/27 10:48:14;;;;;;;23.63;6.15;;;;;;;;;;4929625;28;93359;-86
2023/05/27 10:50:49;;;;;;;19.85;5.10;;;;;;;;;;4957627;28;94780;-86
2023/05/27 10:53:17;;;;;;;22.67;5.28;;;;;;;;;;4944804;28;92902;-85
2023/05/27 10:55:44;;;;;;;17.15;5.47;;;;;;;;;;4937444;28;97768;-85
2023/05/27 10:58:11;;;;;;;13.70;4.35;;;;;;;;;;4959968;28;92539;-86
2023/05/27 11:00:40;;;;;;;34.22;6.28;;;;;;;;;;4934455;28;94345;-86
2023/05/27 11:03:15;;;;;;;16.55;5.10;;;;;;;;;;4953909;28;92705;-86
2023/05/27 11:05:42;;;;;;;21.30;5.43;;;;;;;;;;4952661;28;93224;-86
2023/05/27 11:08:12;;;;;;;13.70;5.20;;;;;;;;;;4923218;28;94472;-85
2023/05/27 11:10:40;;;;;;;16.55;3.88;;;;;;;;;;4945409;28;94596;-85
2023/05/27 11:13:07;;;;;;;14.32;5.00;;;;;;;;;;4954714;28;92120;-85
2023/05/27 11:15:33;;;;;;;19.63;5.28;;;;;;;;;;4956062;28;94617;-85
2023/05/27 11:18:01;;;;;;;21.55;5.65;;;;;;;;;;4956724;28;92905;-85
2023/05/27 11:20:35;;;;;;;13.35;4.47;;;;;;;;;;4948977;28;95607;-85
2023/05/27 11:23:06;;;;;;;16.17;4.93;;;;;;;;;;4953153;28;93194;-85
2023/05/27 11:25:42;;;;;;;15.90;4.95;;;;;;;;;;4956636;28;92393;-86
2023/05/27 11:28:16;;;;;;;18.02;4.78;;;;;;;;;;4955027;28;92396;-85
2023/05/27 11:30:43;;;;;;;15.63;5.03;;;;;;;;;;4944507;28;93941;-86
2023/05/27 11:33:12;;;;;;;17.65;4.50;;;;;;;;;;4956695;28;93361;-86
2023/05/27 11:36:02;;;;;;;25.80;5.57;;;;;;;;;;4951066;28;92322;-86
2023/05/27 11:38:29;;;;;;;20.17;4.85;;;;;;;;;;4952383;28;93316;-86
2023/05/27 11:41:06;;;;;;;13.85;4.47;;;;;;;;;;4961730;28;92388;-85
2023/05/27 11:43:33;;;;;;;17.33;4.97;;;;;;;;;;4950000;28;92493;-85
2023/05/27 11:46:03;;;;;;;16.13;5.03;;;;;;;;;;4944322;28;94910;-86
2023/05/27 11:48:30;;;;;;;11.30;4.33;;;;;;;;;;4954349;28;95660;-86
2023/05/27 11:50:57;;;;;;;15.18;4.25;;;;;;;;;;4951264;28;92608;-86
2023/05/27 11:53:26;;;;;;;14.18;4.40;;;;;;;;;;4942572;28;93007;-87
2023/05/27 11:55:53;;;;;;;21.10;5.35;;;;;;;;;;4947651;28;94662;-85
2023/05/27 11:58:19;;;;;;;16.95;5.35;;;;;;;;;;4959055;28;93063;-87
2023/05/27 12:00:46;;;;;;;16.83;4.65;;;;;;;;;;4955534;28;94421;-86
2023/05/27 12:03:12;;;;;;;17.25;5.28;;;;;;;;;;4956690;28;91877;-86
2023/05/27 12:05:39;;;;;;;17.27;4.28;;;;;;;;;;4953621;28;92948;-85
2023/05/27 12:08:06;;;;;;;16.65;4.57;;;;;;;;;;4944734;28;95956;-86
2023/05/27 12:10:32;;;;;;;13.63;3.97;;;;;;;;;;4934927;28;97458;-86
2023/05/27 12:13:06;;;;;;;18.33;3.92;;;;;;;;;;4946956;28;92911;-86
2023/05/27 12:15:33;;;;;;;16.23;4.90;;;;;;;;;;4951192;28;92732;-86
2023/05/27 12:17:59;;;;;;;20.20;5.45;;;;;;;;;;4956163;28;93415;-85
2023/05/27 12:20:28;;;;;;;16.42;4.28;;;;;;;;;;4954661;28;92529;-86
2023/05/27 12:22:55;;;;;;;15.23;4.53;;;;;;;;;;4944207;28;92505;-86
2023/05/27 12:25:22;;;;;;;16.13;4.18;;;;;;;;;;4932230;28;94423;-85
2023/05/27 12:27:48;;;;;;;13.15;5.38;;;;;;;;;;4948489;28;92577;-85
2023/05/27 12:30:15;;;;;;;18.40;4.20;;;;;;;;;;4946835;28;92420;-85
2023/05/27 12:32:41;;;;;;;13.85;4.20;;;;;;;;;;4955426;28;92598;-85
2023/05/27 12:35:09;;;;;;;14.73;4.95;;;;;;;;;;4926614;28;94510;-86
2023/05/27 12:37:36;;;;;;;22.02;5.05;;;;;;;;;;4937217;28;92479;-85
2023/05/27 12:40:04;;;;;;;16.73;4.85;;;;;;;;;;4940961;28;94165;-85
2023/05/27 12:42:32;;;;;;;13.45;4.18;;;;;;;;;;4940685;28;93904;-86
2023/05/27 12:44:59;;;;;;;14.63;4.10;;;;;;;;;;4961313;28;92462;-86
2023/05/27 12:47:26;;;;;;;9.77;3.85;;;;;;;;;;4953441;28;94800;-86
2023/05/27 12:49:52;;;;;;;19.02;5.75;;;;;;;;;;4953098;28;94798;-85
2023/05/27 12:52:19;;;;;;;15.63;4.78;;;;;;;;;;4950142;28;96295;-86
2023/05/27 12:54:46;;;;;;;14.38;4.20;;;;;;;;;;4953918;28;92386;-87
2023/05/27 12:57:13;;;;;;;15.93;5.00;;;;;;;;;;4948839;28;93053;-85
2023/05/27 12:59:41;;;;;;;13.77;4.20;;;;;;;;;;4946475;28;94882;-85
2023/05/27 13:02:07;;;;;;;11.65;4.30;;;;;;;;;;4957561;28;97861;-85
2023/05/27 13:04:34;;;;;;;15.82;4.38;;;;;;;;;;4954131;28;92833;-85
2023/05/27 13:07:00;;;;;;;14.48;4.05;;;;;;;;;;4945592;28;93943;-84
2023/05/27 13:09:27;;;;;;;23.60;4.47;;;;;;;;;;4937754;28;94412;-86
2023/05/27 13:11:54;;;;;;;14.60;4.43;;;;;;;;;;4953368;28;92564;-85
2023/05/27 13:14:20;;;;;;;14.30;3.97;;;;;;;;;;4954336;28;94243;-85
2023/05/27 13:16:47;;;;;;;18.27;4.82;;;;;;;;;;4964736;28;91864;-85
2023/05/27 13:19:14;;;;;;;11.15;4.22;;;;;;;;;;4955167;28;94936;-85
2023/05/27 13:21:41;;;;;;;17.85;6.03;;;;;;;;;;4959108;28;92960;-85
2023/05/27 13:24:07;;;;;;;14.05;5.07;;;;;;;;;;4946707;28;94900;-85
2023/05/27 13:26:34;;;;;;;16.10;4.32;;;;;;;;;;4953075;28;94034;-85
2023/05/27 13:29:01;;;;;;;11.88;4.28;;;;;;;;;;4940128;28;92308;-85
2023/05/27 13:31:28;;;;;;;14.15;5.15;;;;;;;;;;4937604;28;95224;-86
2023/05/27 13:33:54;;;;;;;14.20;4.32;;;;;;;;;;4936766;28;93857;-84
2023/05/27 13:36:21;;;;;;;13.00;4.47;;;;;;;;;;4933908;28;94464;-85
2023/05/27 13:38:48;;;;;;;10.43;4.40;;;;;;;;;;4928010;28;93553;-85
2023/05/27 13:41:14;;;;;;;17.42;4.57;;;;;;;;;;4942509;28;94374;-84
2023/05/27 13:43:41;;;;;;;16.33;5.13;;;;;;;;;;4958277;28;93047;-85
2023/05/27 13:46:08;;;;;;;18.55;4.88;;;;;;;;;;4952497;28;93889;-85
2023/05/27 13:48:34;;;;;;;14.40;4.28;;;;;;;;;;4954212;28;95516;-84
2023/05/27 13:51:02;;;;;;;23.42;5.72;;;;;;;;;;4955051;28;92382;-84
2023/05/27 13:53:28;;;;;;;21.13;5.40;;;;;;;;;;4943407;28;93209;-85
2023/05/27 13:55:55;;;;;;;24.42;4.63;;;;;;;;;;4944450;28;92444;-84
2023/05/27 13:58:21;;;;;;;16.63;4.03;;;;;;;;;;4940623;28;94880;-85
2023/05/27 14:00:48;;;;;;;9.50;3.70;;;;;;;;;;4954652;28;94286;-85
2023/05/27 14:03:14;;;;;;;11.48;4.07;;;;;;;;;;4956284;28;92487;-85
2023/05/27 14:05:41;;;;;;;10.35;3.72;;;;;;;;;;4958858;28;92957;-84
2023/05/27 14:08:08;;;;;;;12.05;3.92;;;;;;;;;;4957040;28;92147;-85
2023/05/27 14:10:35;;;;;;;16.30;4.30;;;;;;;;;;4956420;28;92450;-85
2023/05/27 14:13:02;;;;;;;13.38;3.97;;;;;;;;;;4954764;28;94876;-86
2023/05/27 14:15:29;;;;;;;11.68;4.53;;;;;;;;;;4938041;28;94209;-86
2023/05/27 14:18:00;;;;;;;11.68;4.20;;;;;;;;;;4957727;28;92457;-85
2023/05/27 14:20:27;;;;;;;12.32;4.18;;;;;;;;;;4956432;28;92374;-87
2023/05/27 14:22:54;;;;;;;15.68;4.68;;;;;;;;;;4946650;28;95335;-87
2023/05/27 14:25:21;;;;;;;12.35;3.83;;;;;;;;;;4955514;28;92490;-87
2023/05/27 14:27:47;;;;;;;10.02;3.75;;;;;;;;;;4937468;28;94319;-87
2023/05/27 14:30:15;;;;;;;13.88;4.05;;;;;;;;;;4951986;28;95463;-87
2023/05/27 14:32:42;;;;;;;12.75;4.20;;;;;;;;;;4953439;28;93512;-87
2023/05/27 14:35:09;;;;;;;11.02;3.78;;;;;;;;;;4952294;28;95280;-87
2023/05/27 14:37:35;;;;;;;17.13;4.80;;;;;;;;;;4934270;28;95049;-87
2023/05/27 14:40:02;;;;;;;14.68;4.70;;;;;;;;;;4936385;28;98146;-86
2023/05/27 14:42:29;;;;;;;14.25;4.82;;;;;;;;;;4950489;28;92263;-88